Time;durP1;ratioP1;P1;durP2;ratioP2;P2;SDS_P1;SDS_P2;PMS_P1;PMS_P2;Temp;Humidity;BMP_temperature;BMP_pressure;BME280_temperature;BME280_humidity;BME280_pressure;Samples;Min_cycle;Max_cycle;Signal;HPM_P1;HPM_P2
2021/04/09 00:02:01;;;;;;;2.20;1.55;;;;;;;9.84;49.63;101191.63;4858760;28;126966;-61
2021/04/09 00:04:27;;;;;;;1.80;1.23;;;;;;;9.81;50.04;101192.09;4922636;28;111865;-61
2021/04/09 00:06:54;;;;;;;2.03;1.15;;;;;;;9.80;50.07;101193.16;4925341;28;97676;-58
2021/04/09 00:09:20;;;;;;;3.97;1.70;;;;;;;9.77;49.98;101186.38;4921814;28;115308;-61
2021/04/09 00:11:46;;;;;;;3.13;1.40;;;;;;;9.75;50.22;101187.72;4924032;28;111405;-58
2021/04/09 00:14:14;;;;;;;2.70;1.40;;;;;;;9.71;50.02;101184.69;4924311;28;112511;-62
2021/04/09 00:16:41;;;;;;;2.55;1.50;;;;;;;9.67;50.33;101190.78;4924812;28;98800;-59
2021/04/09 00:19:15;;;;;;;2.25;1.40;;;;;;;9.66;50.16;101187.25;4938741;28;97747;-58
2021/04/09 00:21:42;;;;;;;1.90;1.48;;;;;;;9.65;50.70;101188.34;4923727;28;98815;-58
2021/04/09 00:24:09;;;;;;;2.95;1.60;;;;;;;9.61;50.47;101191.75;4923179;28;118667;-62
2021/04/09 00:26:35;;;;;;;2.90;1.45;;;;;;;9.64;50.08;101192.09;4923792;28;99064;-58
2021/04/09 00:29:01;;;;;;;1.70;1.27;;;;;;;9.55;50.56;101188.19;4923865;28;97841;-58
2021/04/09 00:31:27;;;;;;;2.92;1.63;;;;;;;9.54;50.61;101186.53;4835605;28;98858;-58
2021/04/09 00:33:53;;;;;;;2.67;1.50;;;;;;;9.56;50.46;101182.53;4826121;28;99292;-62
2021/04/09 00:36:19;;;;;;;3.00;1.40;;;;;;;9.53;50.56;101179.50;4832217;28;98497;-59
2021/04/09 00:38:46;;;;;;;2.38;1.50;;;;;;;9.45;50.23;101175.34;4823369;28;116978;-58
2021/04/09 00:41:13;;;;;;;2.42;1.48;;;;;;;9.46;50.58;101178.84;4826722;28;98450;-58
2021/04/09 00:43:39;;;;;;;2.55;1.45;;;;;;;9.44;50.54;101165.66;4824632;28;113473;-63
2021/04/09 00:46:07;;;;;;;2.42;1.10;;;;;;;9.43;50.54;101165.88;4808352;28;97879;-61
2021/04/09 00:48:33;;;;;;;3.55;1.45;;;;;;;9.44;49.99;101164.84;4827016;28;97796;-59
2021/04/09 00:50:59;;;;;;;2.30;1.33;;;;;;;9.41;50.37;101165.31;4908620;28;114238;-61
2021/04/09 00:53:25;;;;;;;2.78;1.48;;;;;;;9.33;50.98;101163.84;4905665;28;117659;-59
2021/04/09 00:55:51;;;;;;;2.25;1.17;;;;;;;9.32;50.79;101157.63;4921181;28;98239;-58
2021/04/09 00:58:17;;;;;;;3.38;1.45;;;;;;;9.34;50.73;101157.38;4868443;28;110459;-62
2021/04/09 01:00:43;;;;;;;2.78;1.50;;;;;;;9.31;50.43;101160.56;4862900;28;98248;-62
2021/04/09 01:03:09;;;;;;;2.58;1.35;;;;;;;9.26;50.07;101152.41;4914446;28;122240;-58
2021/04/09 01:05:36;;;;;;;2.97;1.40;;;;;;;9.28;50.76;101151.13;4898332;28;127309;-62
2021/04/09 01:08:03;;;;;;;3.20;1.40;;;;;;;9.27;50.42;101143.25;4921784;28;98156;-62
2021/04/09 01:10:29;;;;;;;2.85;1.42;;;;;;;9.27;50.45;101149.44;4924098;28;99023;-61
2021/04/09 01:12:55;;;;;;;2.70;1.30;;;;;;;9.23;50.56;101145.63;4937879;28;127335;-61
2021/04/09 01:15:21;;;;;;;2.63;1.17;;;;;;;9.26;50.79;101142.44;4864486;28;114887;-58
2021/04/09 01:18:21;;;;;;;2.65;1.30;;;;;;;9.20;50.59;101140.75;4808047;28;107061;-62
2021/04/09 01:21:20;;;;;;;2.75;1.33;;;;;;;9.19;50.90;101135.59;4865452;28;98300;-62
2021/04/09 01:24:01;;;;;;;2.70;1.17;;;;;;;9.13;50.90;101134.69;4823844;28;98323;-62
2021/04/09 01:27:12;;;;;;;2.88;1.38;;;;;;;9.14;50.65;101130.13;4843311;28;98044;-58
2021/04/09 01:30:15;;;;;;;2.00;1.33;;;;;;;9.12;50.60;101125.00;4919114;28;98402;-58
2021/04/09 01:32:41;;;;;;;2.92;1.20;;;;;;;9.07;50.37;101116.81;4909309;28;98358;-58
2021/04/09 01:35:10;;;;;;;3.55;1.60;;;;;;;9.11;50.50;101117.97;4919686;28;124878;-58
2021/04/09 01:38:06;;;;;;;2.83;1.30;;;;;;;9.05;50.66;101119.75;4921217;28;114114;-59
2021/04/09 01:40:43;;;;;;;2.83;1.40;;;;;;;9.02;50.58;101114.84;4914597;28;97892;-61
2021/04/09 01:43:12;;;;;;;2.35;1.33;;;;;;;9.04;50.35;101109.25;4905454;28;117427;-61
2021/04/09 01:45:38;;;;;;;2.83;1.48;;;;;;;9.02;50.61;101108.66;4904879;28;99814;-61
2021/04/09 01:48:06;;;;;;;3.28;1.35;;;;;;;9.01;50.64;101107.03;4920869;28;115522;-59
2021/04/09 01:50:32;;;;;;;3.38;1.45;;;;;;;9.01;50.47;101105.16;4903582;28;98201;-58
2021/04/09 01:52:58;;;;;;;3.20;1.40;;;;;;;8.95;50.30;101098.03;4920528;28;113920;-58
2021/04/09 01:55:25;;;;;;;2.20;1.30;;;;;;;9.00;50.27;101086.56;4916130;28;98374;-59
2021/04/09 01:57:51;;;;;;;2.40;1.15;;;;;;;9.00;50.24;101089.25;4921775;28;98249;-61
2021/04/09 02:00:22;;;;;;;3.08;1.20;;;;;;;8.92;50.36;101078.88;4823098;28;118121;-58
2021/04/09 02:02:49;;;;;;;2.13;1.17;;;;;;;8.90;50.04;101072.94;4831797;28;98028;-61
2021/04/09 02:05:16;;;;;;;2.60;1.15;;;;;;;8.87;50.44;101068.06;4824909;28;97610;-58
2021/04/09 02:07:43;;;;;;;1.83;1.35;;;;;;;8.91;50.30;101070.00;4804973;28;97834;-58
2021/04/09 02:10:10;;;;;;;2.25;1.15;;;;;;;8.91;50.47;101058.44;4803670;29;107095;-58
2021/04/09 02:12:36;;;;;;;2.17;0.90;;;;;;;8.90;50.27;101065.69;4805965;29;99821;-61
2021/04/09 02:15:08;;;;;;;1.70;1.00;;;;;;;8.87;50.47;101066.16;4813110;28;105420;-58
2021/04/09 02:17:36;;;;;;;2.38;1.20;;;;;;;8.89;50.60;101060.56;4823605;28;99030;-62
2021/04/09 02:20:08;;;;;;;2.45;1.00;;;;;;;8.84;50.50;101055.91;4825179;28;97803;-62
2021/04/09 02:22:34;;;;;;;2.72;1.20;;;;;;;8.79;50.16;101055.81;4852532;28;98436;-58
2021/04/09 02:25:00;;;;;;;2.88;1.00;;;;;;;8.82;50.41;101055.34;4937248;28;103008;-62
2021/04/09 02:27:26;;;;;;;2.30;1.10;;;;;;;8.83;50.52;101046.22;4920599;28;104458;-58
2021/04/09 02:29:53;;;;;;;1.98;1.20;;;;;;;8.81;50.18;101053.72;4849923;28;99299;-61
2021/04/09 02:32:21;;;;;;;2.30;1.17;;;;;;;8.78;50.31;101043.44;4819702;28;116918;-63
2021/04/09 02:34:47;;;;;;;2.60;1.10;;;;;;;8.78;50.62;101044.25;4810721;28;98332;-58
2021/04/09 02:37:13;;;;;;;2.20;1.10;;;;;;;8.76;50.15;101038.31;4824075;28;121965;-58
2021/04/09 02:39:39;;;;;;;2.80;1.10;;;;;;;8.74;50.32;101045.78;4844583;28;117841;-58
2021/04/09 02:42:09;;;;;;;2.35;1.02;;;;;;;8.66;50.35;101034.63;4822571;28;124535;-58
2021/04/09 02:44:35;;;;;;;2.40;1.00;;;;;;;8.71;50.26;101024.75;4824128;28;98562;-62
2021/04/09 02:47:15;;;;;;;2.10;1.20;;;;;;;8.68;49.97;101027.91;4822238;28;122881;-61
2021/04/09 02:49:43;;;;;;;1.98;0.80;;;;;;;8.69;50.33;101024.19;4821646;28;108765;-58
2021/04/09 02:52:14;;;;;;;3.08;1.10;;;;;;;8.66;50.22;101021.97;4889625;28;98429;-58
2021/04/09 02:54:40;;;;;;;2.20;1.00;;;;;;;8.66;50.21;101023.88;4893880;28;99315;-61
2021/04/09 02:57:09;;;;;;;2.50;1.05;;;;;;;8.63;49.96;101018.97;4901339;28;98324;-58
2021/04/09 02:59:35;;;;;;;3.33;1.00;;;;;;;8.68;49.96;101016.34;4902492;28;97929;-61
2021/04/09 03:02:01;;;;;;;2.10;1.00;;;;;;;8.63;49.87;101011.72;4902153;28;127025;-58
2021/04/09 03:04:30;;;;;;;1.83;1.00;;;;;;;8.58;50.03;101009.75;4918093;28;99182;-61
2021/04/09 03:06:56;;;;;;;2.65;1.00;;;;;;;8.64;50.02;101002.59;4903335;28;98185;-61
2021/04/09 03:09:26;;;;;;;3.95;1.00;;;;;;;8.62;50.10;100998.53;4900577;28;97909;-58
2021/04/09 03:11:52;;;;;;;1.73;0.75;;;;;;;8.58;49.90;101003.56;4820059;28;127231;-62
2021/04/09 03:14:18;;;;;;;2.40;0.93;;;;;;;8.54;50.13;100987.09;4825010;28;103038;-58
2021/04/09 03:16:56;;;;;;;2.90;0.93;;;;;;;8.54;49.99;100997.84;4805952;28;98609;-59
2021/04/09 03:19:22;;;;;;;2.40;1.00;;;;;;;8.57;49.94;100991.19;4851400;28;98055;-58
2021/04/09 03:21:48;;;;;;;1.95;1.00;;;;;;;8.59;49.75;100986.38;4919749;28;123818;-58
2021/04/09 03:24:14;;;;;;;1.95;0.60;;;;;;;8.52;49.95;100991.06;4919618;28;128926;-58
2021/04/09 03:26:40;;;;;;;1.98;0.90;;;;;;;8.52;50.46;100985.69;4919583;28;127632;-58
2021/04/09 03:29:06;;;;;;;2.85;1.10;;;;;;;8.52;50.31;100983.81;4918717;28;120044;-59
2021/04/09 03:31:34;;;;;;;2.63;1.00;;;;;;;8.51;50.00;100984.88;4920471;28;121562;-58
2021/04/09 03:34:00;;;;;;;2.47;1.08;;;;;;;8.51;50.04;100987.59;4918384;28;98380;-62
2021/04/09 03:36:26;;;;;;;2.20;1.02;;;;;;;8.49;49.68;100987.03;4920185;28;125763;-58
2021/04/09 03:38:52;;;;;;;2.28;1.25;;;;;;;8.45;49.91;100979.66;4920118;28;123046;-58
2021/04/09 03:41:18;;;;;;;3.03;2.10;;;;;;;8.46;49.79;100978.63;4916872;28;114924;-58
2021/04/09 03:43:44;;;;;;;3.80;2.17;;;;;;;8.47;49.90;100972.19;4918748;28;120227;-58
2021/04/09 03:46:10;;;;;;;3.70;2.33;;;;;;;8.47;50.01;100966.81;4918076;28;98082;-58
2021/04/09 03:48:36;;;;;;;3.75;2.03;;;;;;;8.51;49.80;100966.09;4829580;28;97803;-62
2021/04/09 03:51:05;;;;;;;3.30;2.08;;;;;;;8.50;49.55;100963.66;4821509;28;127822;-62
2021/04/09 03:53:31;;;;;;;3.95;1.95;;;;;;;8.58;49.47;100955.19;4821182;28;105867;-62
2021/04/09 03:55:57;;;;;;;3.47;1.83;;;;;;;8.54;49.53;100962.09;4821524;28;128176;-62
2021/04/09 03:58:23;;;;;;;3.45;1.73;;;;;;;8.59;49.54;100956.81;4822137;28;105945;-59
2021/04/09 04:00:49;;;;;;;3.30;1.83;;;;;;;8.60;49.55;100956.56;4821391;28;98843;-61
2021/04/09 04:03:15;;;;;;;3.25;1.52;;;;;;;8.66;49.10;100951.28;4873659;28;126451;-58
2021/04/09 04:05:41;;;;;;;3.00;1.85;;;;;;;8.64;49.31;100958.78;4919437;28;127920;-62
2021/04/09 04:08:07;;;;;;;3.85;2.10;;;;;;;8.62;49.65;100944.78;4822532;28;118346;-59
2021/04/09 04:10:34;;;;;;;3.15;1.90;;;;;;;8.56;49.25;100951.91;4829248;28;98625;-61
2021/04/09 04:13:00;;;;;;;2.40;1.70;;;;;;;8.57;49.10;100940.94;4819506;28;127045;-59
2021/04/09 04:15:26;;;;;;;3.08;2.10;;;;;;;8.57;49.31;100940.94;4859931;28;126182;-58
2021/04/09 04:17:52;;;;;;;3.60;2.05;;;;;;;8.53;49.68;100931.75;4923680;28;104896;-62
2021/04/09 04:20:18;;;;;;;2.97;1.92;;;;;;;8.58;49.30;100939.88;4869353;28;128188;-61
2021/04/09 04:22:44;;;;;;;4.50;2.08;;;;;;;8.58;49.06;100929.13;4824753;28;98867;-58
2021/04/09 04:25:11;;;;;;;2.88;1.85;;;;;;;8.56;49.25;100923.16;4823295;28;126628;-58
2021/04/09 04:27:37;;;;;;;2.67;2.00;;;;;;;8.56;49.25;100925.84;4824442;28;97903;-58
2021/04/09 04:30:04;;;;;;;4.13;2.28;;;;;;;8.50;49.12;100921.47;4906565;28;98216;-62
2021/04/09 04:32:30;;;;;;;2.92;1.80;;;;;;;8.59;49.29;100921.88;4923184;28;97878;-61
2021/04/09 04:34:56;;;;;;;4.10;2.13;;;;;;;8.62;49.14;100916.03;4898911;28;127384;-61
2021/04/09 04:37:22;;;;;;;3.35;1.98;;;;;;;8.60;49.34;100921.63;4884383;28;113549;-62
2021/04/09 04:39:48;;;;;;;3.08;2.10;;;;;;;8.66;49.26;100916.34;4921740;28;99172;-58
2021/04/09 04:42:14;;;;;;;2.80;2.10;;;;;;;8.64;49.28;100913.09;4828947;28;119994;-58
2021/04/09 04:44:41;;;;;;;2.72;1.73;;;;;;;8.66;49.35;100921.72;4825334;28;128031;-58
2021/04/09 04:47:07;;;;;;;3.42;1.90;;;;;;;8.64;49.22;100907.72;4824880;28;98059;-58
2021/04/09 04:49:33;;;;;;;3.10;2.00;;;;;;;8.61;49.17;100914.41;4824189;28;98231;-58
2021/04/09 04:51:59;;;;;;;2.97;1.90;;;;;;;8.70;49.32;100909.44;4824678;28;97819;-62
2021/04/09 04:54:25;;;;;;;3.22;2.17;;;;;;;8.71;49.32;100903.00;4838571;28;122225;-61
2021/04/09 04:56:51;;;;;;;3.28;1.70;;;;;;;8.76;49.24;100901.22;4807460;28;97802;-61
2021/04/09 04:59:18;;;;;;;3.53;2.00;;;;;;;8.74;49.36;100894.44;4824012;28;120814;-62
2021/04/09 05:01:44;;;;;;;3.13;1.80;;;;;;;8.82;49.05;100900.22;4823369;28;123618;-62
2021/04/09 05:04:10;;;;;;;4.00;2.00;;;;;;;8.80;49.05;100902.34;4824597;28;98752;-61
2021/04/09 05:06:36;;;;;;;3.17;2.00;;;;;;;8.85;49.58;100898.94;4824497;28;115911;-62
2021/04/09 05:09:02;;;;;;;3.42;2.00;;;;;;;8.86;49.43;100903.25;4829389;28;128773;-62
2021/04/09 05:11:28;;;;;;;3.22;2.05;;;;;;;8.88;49.13;100909.16;4851187;28;111453;-58
2021/04/09 05:13:54;;;;;;;3.03;2.03;;;;;;;8.94;49.21;100896.63;4919739;28;127590;-58
2021/04/09 05:16:20;;;;;;;3.40;2.10;;;;;;;8.97;49.43;100893.47;4922872;28;97857;-62
2021/04/09 05:18:46;;;;;;;3.25;2.15;;;;;;;8.98;49.10;100893.22;4923331;28;97830;-58
2021/04/09 05:21:12;;;;;;;3.47;2.05;;;;;;;9.05;49.35;100891.16;4922997;28;103106;-62
2021/04/09 05:23:39;;;;;;;3.15;1.80;;;;;;;9.11;49.54;100894.72;4917480;28;119193;-59
2021/04/09 05:26:05;;;;;;;3.28;1.83;;;;;;;9.25;49.12;100890.63;4864072;28;98051;-58
2021/04/09 05:28:31;;;;;;;2.70;1.98;;;;;;;9.33;48.97;100894.78;4838489;28;112023;-62
2021/04/09 05:30:57;;;;;;;2.95;1.85;;;;;;;9.39;49.21;100896.47;4819490;28;129096;-61
2021/04/09 05:33:24;;;;;;;3.97;2.00;;;;;;;9.48;49.18;100900.38;4820245;28;127455;-58
2021/04/09 05:35:50;;;;;;;3.33;1.98;;;;;;;9.52;48.47;100896.13;4821147;28;97732;-59
2021/04/09 05:38:16;;;;;;;3.80;2.00;;;;;;;9.65;48.43;100894.91;4820628;28;98414;-58
2021/04/09 05:40:42;;;;;;;3.50;2.13;;;;;;;9.77;48.29;100892.91;4840030;28;98661;-58
2021/04/09 05:43:09;;;;;;;4.32;2.08;;;;;;;9.88;48.12;100879.56;4820999;28;98548;-58
2021/04/09 05:45:35;;;;;;;3.65;2.05;;;;;;;10.01;47.91;100887.25;4859214;28;97777;-61
2021/04/09 05:48:05;;;;;;;3.03;1.90;;;;;;;10.17;47.55;100886.34;4820408;28;111322;-59
2021/04/09 05:50:32;;;;;;;3.13;1.70;;;;;;;10.31;47.77;100887.59;4845458;28;97980;-61
2021/04/09 05:52:58;;;;;;;3.97;1.98;;;;;;;10.57;47.85;100879.72;4820882;28;98073;-59
2021/04/09 05:55:25;;;;;;;3.30;1.88;;;;;;;10.78;47.10;100869.91;4819440;28;99343;-59
2021/04/09 05:57:51;;;;;;;3.60;2.00;;;;;;;10.97;47.24;100867.63;4821602;28;99227;-58
2021/04/09 06:00:18;;;;;;;2.80;1.80;;;;;;;11.17;46.97;100864.25;4819721;28;99079;-61
2021/04/09 06:02:44;;;;;;;3.63;1.88;;;;;;;11.21;47.21;100865.34;4828247;28;115331;-62
2021/04/09 06:05:10;;;;;;;3.08;1.90;;;;;;;11.16;47.28;100866.13;4841482;28;119114;-59
2021/04/09 06:07:36;;;;;;;3.63;1.92;;;;;;;11.02;47.33;100873.06;4841363;28;98962;-58
2021/04/09 06:10:04;;;;;;;5.30;2.00;;;;;;;10.89;48.39;100865.41;4824205;28;99189;-58
2021/04/09 06:12:30;;;;;;;3.42;2.03;;;;;;;10.84;49.08;100866.16;4820708;28;98468;-62
2021/04/09 06:14:56;;;;;;;4.38;2.03;;;;;;;11.09;47.90;100857.44;4802336;28;98030;-58
2021/04/09 06:17:22;;;;;;;4.05;2.38;;;;;;;11.30;47.14;100863.75;4819302;28;127949;-59
2021/04/09 06:19:48;;;;;;;4.10;2.05;;;;;;;11.53;47.04;100860.63;4837805;28;98309;-62
2021/04/09 06:22:15;;;;;;;3.55;2.08;;;;;;;11.78;46.36;100850.97;4819521;28;121962;-59
2021/04/09 06:24:42;;;;;;;3.65;2.17;;;;;;;12.02;45.65;100852.19;4828485;28;97841;-62
2021/04/09 06:27:09;;;;;;;3.15;1.80;;;;;;;12.29;45.18;100849.22;4835788;28;109163;-62
2021/04/09 06:29:35;;;;;;;3.97;2.20;;;;;;;12.55;44.85;100845.72;4843780;28;99096;-59
2021/04/09 06:32:01;;;;;;;4.05;2.10;;;;;;;12.89;44.34;100846.78;4820534;28;98071;-59
2021/04/09 06:34:27;;;;;;;2.85;2.00;;;;;;;13.20;43.48;100839.41;4820561;28;99043;-59
2021/04/09 06:36:53;;;;;;;3.70;2.10;;;;;;;13.40;43.35;100833.13;4824783;28;105457;-59
2021/04/09 06:39:19;;;;;;;4.57;2.10;;;;;;;13.55;43.35;100840.34;4819783;28;121828;-62
2021/04/09 06:41:45;;;;;;;3.25;1.90;;;;;;;13.54;43.58;100836.03;4820960;28;98393;-59
2021/04/09 06:44:11;;;;;;;3.97;2.22;;;;;;;13.59;44.18;100829.78;4818462;28;124291;-63
2021/04/09 06:46:39;;;;;;;5.60;2.20;;;;;;;13.60;43.69;100834.94;4822491;28;122045;-59
2021/04/09 06:49:05;;;;;;;3.95;2.20;;;;;;;13.70;43.76;100832.16;4825225;28;98123;-62
2021/04/09 06:51:32;;;;;;;2.83;1.92;;;;;;;13.74;44.99;100832.41;4822815;28;97934;-62
2021/04/09 06:53:58;;;;;;;3.05;2.05;;;;;;;13.86;44.11;100822.03;4833802;28;97810;-62
2021/04/09 06:56:24;;;;;;;3.03;2.00;;;;;;;13.83;44.39;100832.63;4802526;28;129973;-59
2021/04/09 06:58:50;;;;;;;3.90;2.33;;;;;;;13.92;43.90;100820.13;4808331;28;121820;-59
2021/04/09 07:01:17;;;;;;;2.83;2.00;;;;;;;13.94;44.35;100816.03;4816692;28;126735;-62
2021/04/09 07:03:43;;;;;;;2.83;2.17;;;;;;;13.95;44.27;100816.81;4844720;28;98007;-59
2021/04/09 07:06:10;;;;;;;2.88;1.80;;;;;;;13.92;44.91;100809.28;4824119;28;98291;-59
2021/04/09 07:08:42;;;;;;;4.13;2.28;;;;;;;13.81;45.00;100810.44;4820319;28;99099;-59
2021/04/09 07:11:09;;;;;;;3.47;1.95;;;;;;;13.81;44.82;100805.00;4820171;28;98648;-62
2021/04/09 07:13:51;;;;;;;3.45;2.10;;;;;;;13.71;45.55;100795.84;4820099;28;97791;-59
2021/04/09 07:16:18;;;;;;;3.05;1.85;;;;;;;13.71;45.20;100805.88;4857034;28;98995;-59
2021/04/09 07:19:05;;;;;;;3.53;2.10;;;;;;;13.80;45.27;100806.09;4819754;28;105700;-62
2021/04/09 07:21:33;;;;;;;3.25;1.75;;;;;;;13.81;45.26;100808.53;4816845;28;98606;-62
2021/04/09 07:24:17;;;;;;;3.15;1.80;;;;;;;14.05;45.12;100802.41;4820822;28;98029;-62
2021/04/09 07:26:49;;;;;;;3.20;1.98;;;;;;;14.15;44.97;100794.22;4852919;28;98474;-59
2021/04/09 07:29:37;;;;;;;4.35;2.50;;;;;;;14.54;43.95;100790.63;4835352;28;98111;-62
2021/04/09 07:32:10;;;;;;;2.78;1.77;;;;;;;14.71;44.04;100783.69;4826716;28;98376;-62
2021/04/09 07:35:04;;;;;;;3.15;1.88;;;;;;;14.90;43.88;100781.06;4825000;28;97957;-59
2021/04/09 07:37:32;;;;;;;3.20;2.00;;;;;;;14.91;44.15;100782.66;4819600;28;98228;-62
2021/04/09 07:40:04;;;;;;;3.13;1.90;;;;;;;14.95;44.11;100780.19;4819606;28;98480;-62
2021/04/09 07:42:33;;;;;;;2.63;1.97;;;;;;;15.15;43.97;100781.84;4835806;28;98412;-59
2021/04/09 07:45:09;;;;;;;4.78;1.75;;;;;;;15.36;43.52;100783.19;4820077;28;97938;-60
2021/04/09 07:47:35;;;;;;;2.88;1.85;;;;;;;15.58;43.33;100771.78;4829815;28;99146;-63
2021/04/09 07:50:10;;;;;;;2.92;1.75;;;;;;;15.97;43.43;100769.88;4821482;28;98260;-59
2021/04/09 07:52:44;;;;;;;3.63;1.90;;;;;;;16.14;42.81;100765.50;4822838;28;98518;-59
2021/04/09 07:55:22;;;;;;;3.03;1.55;;;;;;;16.71;41.96;100768.06;4823634;28;98024;-60
2021/04/09 07:57:49;;;;;;;2.40;1.50;;;;;;;17.27;41.08;100772.41;4845292;28;98144;-59
2021/04/09 08:00:26;;;;;;;2.20;1.33;;;;;;;17.77;40.41;100766.19;4820264;28;98964;-60
2021/04/09 08:02:54;;;;;;;2.85;1.52;;;;;;;18.18;39.75;100763.28;4824688;28;98220;-59
2021/04/09 08:05:25;;;;;;;2.83;1.27;;;;;;;18.68;39.15;100757.63;4823092;28;97951;-59
2021/04/09 08:07:52;;;;;;;2.57;1.27;;;;;;;19.76;37.42;100749.88;4820982;28;98623;-63
2021/04/09 08:10:31;;;;;;;2.95;1.30;;;;;;;20.01;37.23;100753.72;4845931;28;98737;-63
2021/04/09 08:12:58;;;;;;;2.63;1.10;;;;;;;19.42;38.43;100756.09;4858954;28;97886;-63
2021/04/09 08:15:33;;;;;;;2.67;1.23;;;;;;;19.20;38.70;100755.09;4830092;28;97764;-59
2021/04/09 08:18:07;;;;;;;2.55;1.05;;;;;;;19.27;38.48;100757.34;4852296;28;99038;-59
2021/04/09 08:20:42;;;;;;;2.10;1.02;;;;;;;20.73;36.03;100741.94;4820776;28;97995;-59
2021/04/09 08:23:13;;;;;;;2.28;1.10;;;;;;;22.51;32.98;100744.28;4821261;28;118797;-63
2021/04/09 08:25:40;;;;;;;2.20;1.40;;;;;;;23.31;32.40;100734.72;4838786;28;98277;-60
2021/04/09 08:28:09;;;;;;;2.50;1.08;;;;;;;23.64;32.34;100742.75;4821476;28;99318;-64
2021/04/09 08:30:35;;;;;;;2.65;0.80;;;;;;;23.69;32.34;100748.03;4846202;28;99269;-63
2021/04/09 08:33:02;;;;;;;2.60;0.82;;;;;;;24.43;31.54;100751.25;4831858;28;98214;-64
2021/04/09 08:35:28;;;;;;;2.00;0.93;;;;;;;24.84;30.97;100747.19;4835335;28;98167;-60
2021/04/09 08:37:55;;;;;;;1.75;0.77;;;;;;;24.71;31.58;100738.19;4858961;28;99364;-60
2021/04/09 08:40:21;;;;;;;1.75;0.80;;;;;;;25.14;30.91;100739.25;4821543;28;98564;-64
2021/04/09 08:42:47;;;;;;;1.60;0.60;;;;;;;25.48;30.35;100741.56;4821228;28;107996;-60
2021/04/09 08:45:14;;;;;;;2.05;0.82;;;;;;;25.06;30.71;100744.91;4854839;28;100475;-60
2021/04/09 08:47:41;;;;;;;2.63;0.80;;;;;;;25.40;30.61;100744.16;4823068;28;99162;-60
2021/04/09 08:50:12;;;;;;;2.35;0.70;;;;;;;25.36;30.99;100734.22;4865924;28;98552;-64
2021/04/09 08:52:43;;;;;;;3.03;0.90;;;;;;;25.68;30.86;100729.38;4820787;28;98421;-64
2021/04/09 08:55:11;;;;;;;1.80;0.60;;;;;;;26.18;29.91;100725.63;4821323;28;99362;-64
2021/04/09 08:57:42;;;;;;;1.55;0.60;;;;;;;26.34;29.40;100728.28;4819329;28;98709;-64
2021/04/09 09:00:13;;;;;;;2.35;0.75;;;;;;;26.35;29.67;100729.06;4857445;28;98531;-60
2021/04/09 09:02:55;;;;;;;1.77;0.52;;;;;;;26.77;29.32;100720.72;4822451;28;98637;-60
2021/04/09 09:05:30;;;;;;;2.00;0.70;;;;;;;27.03;28.75;100728.22;4832017;28;108727;-64
2021/04/09 09:08:03;;;;;;;1.27;0.60;;;;;;;27.15;28.66;100719.72;4828278;28;98423;-60
2021/04/09 09:10:29;;;;;;;1.95;0.63;;;;;;;27.08;28.53;100716.84;4843222;28;99199;-60
2021/04/09 09:13:04;;;;;;;1.52;0.50;;;;;;;27.18;28.87;100715.44;4820831;28;98682;-64
2021/04/09 09:15:42;;;;;;;1.90;0.50;;;;;;;27.48;28.35;100709.91;4820662;28;99023;-64
2021/04/09 09:18:32;;;;;;;2.03;0.50;;;;;;;27.81;27.58;100705.56;4821067;28;98576;-64
2021/04/09 09:21:20;;;;;;;1.67;0.50;;;;;;;28.08;27.72;100695.16;4848325;28;98392;-60
2021/04/09 09:23:48;;;;;;;1.33;0.55;;;;;;;28.36;27.00;100692.69;4821204;28;98019;-60
2021/04/09 09:26:40;;;;;;;2.33;0.50;;;;;;;28.81;26.54;100689.88;4818832;28;98243;-64
2021/04/09 09:29:22;;;;;;;1.43;0.53;;;;;;;29.52;26.03;100684.72;4830065;28;98516;-60
2021/04/09 09:32:01;;;;;;;1.75;0.60;;;;;;;30.41;24.84;100686.88;4840881;28;98664;-60
2021/04/09 09:34:27;;;;;;;1.98;0.70;;;;;;;30.86;23.93;100689.28;4842470;28;98139;-64
2021/04/09 09:37:18;;;;;;;1.52;0.70;;;;;;;31.39;23.45;100677.19;4820123;28;97931;-65
2021/04/09 09:40:01;;;;;;;1.80;0.50;;;;;;;31.70;22.96;100678.22;4826270;28;98477;-63
2021/04/09 09:42:27;;;;;;;1.65;0.60;;;;;;;32.96;21.04;100673.28;4843057;28;99036;-61
2021/04/09 09:45:07;;;;;;;1.48;0.52;;;;;;;33.60;20.11;100677.28;4820711;28;98172;-65
2021/04/09 09:47:46;;;;;;;1.27;0.50;;;;;;;34.82;18.77;100674.19;4820783;28;98106;-61
2021/04/09 09:50:26;;;;;;;1.85;0.55;;;;;;;35.46;18.79;100674.91;4847382;28;98029;-64
2021/04/09 09:53:00;;;;;;;1.25;0.40;;;;;;;36.35;17.94;100669.25;4821353;28;98270;-60
2021/04/09 09:55:38;;;;;;;1.30;0.50;;;;;;;37.14;17.46;100655.94;4821499;28;99201;-65
2021/04/09 09:58:29;;;;;;;1.60;0.50;;;;;;;37.15;17.45;100663.16;4815383;28;98328;-64
2021/04/09 10:00:56;;;;;;;1.35;0.40;;;;;;;36.76;17.98;100642.56;4821245;28;98473;-64
2021/04/09 10:03:35;;;;;;;1.20;0.50;;;;;;;36.76;18.16;100639.75;4819384;28;98760;-64
2021/04/09 10:06:11;;;;;;;1.25;0.47;;;;;;;37.04;17.36;100635.38;4820117;28;98042;-60
2021/04/09 10:08:38;;;;;;;1.80;0.50;;;;;;;37.35;17.19;100625.19;4852667;28;97765;-62
2021/04/09 10:11:15;;;;;;;1.45;0.50;;;;;;;36.46;17.71;100629.72;4834384;28;98872;-58
2021/04/09 10:13:42;;;;;;;1.77;0.32;;;;;;;36.09;18.33;100618.63;4817795;28;98417;-62
2021/04/09 10:16:13;;;;;;;1.92;0.40;;;;;;;36.08;18.17;100608.66;4818716;28;98077;-62
2021/04/09 10:18:48;;;;;;;1.67;0.55;;;;;;;35.41;19.03;100616.56;4820426;28;98037;-58
2021/04/09 10:21:27;;;;;;;1.65;0.45;;;;;;;34.50;20.05;100612.41;4820418;28;98490;-62
2021/04/09 10:24:09;;;;;;;1.35;0.60;;;;;;;34.41;19.73;100596.97;4819948;28;99139;-62
2021/04/09 10:26:40;;;;;;;1.80;0.47;;;;;;;34.07;19.89;100607.56;4843625;28;99241;-58
2021/04/09 10:29:30;;;;;;;1.77;0.45;;;;;;;35.27;18.92;100592.47;4820590;28;99131;-62
2021/04/09 10:31:58;;;;;;;1.05;0.50;;;;;;;35.56;18.48;100589.06;4820597;28;98936;-58
2021/04/09 10:34:33;;;;;;;1.85;0.50;;;;;;;35.27;18.95;100589.69;4826626;28;99277;-60
2021/04/09 10:36:59;;;;;;;1.77;0.35;;;;;;;35.07;19.42;100588.94;4820713;28;97926;-60
2021/04/09 10:39:27;;;;;;;1.60;0.40;;;;;;;34.33;19.82;100595.50;4821175;28;99705;-64
2021/04/09 10:41:54;;;;;;;1.73;0.40;;;;;;;34.17;20.41;100578.63;4819808;28;98591;-60
2021/04/09 10:44:31;;;;;;;1.38;0.50;;;;;;;34.64;19.40;100578.59;4820109;28;98561;-60
2021/04/09 10:47:00;;;;;;;1.77;0.50;;;;;;;35.08;18.62;100585.69;4820329;28;97938;-64
2021/04/09 10:49:34;;;;;;;1.70;0.45;;;;;;;35.49;18.24;100564.81;4867810;28;97823;-60
2021/04/09 10:52:14;;;;;;;1.67;0.55;;;;;;;35.91;18.13;100562.19;4813049;28;99457;-61
2021/04/09 10:54:42;;;;;;;1.00;0.50;;;;;;;35.47;18.82;100558.03;4818796;28;98228;-64
2021/04/09 10:57:16;;;;;;;2.00;0.50;;;;;;;35.51;18.81;100561.56;4816999;28;98329;-60
2021/04/09 10:59:45;;;;;;;1.20;0.35;;;;;;;35.23;18.95;100541.38;4838211;28;98752;-64
2021/04/09 11:02:22;;;;;;;1.55;0.40;;;;;;;34.96;19.51;100544.34;4847792;28;98190;-64
2021/04/09 11:04:52;;;;;;;1.00;0.40;;;;;;;34.55;19.69;100548.38;4801869;28;99417;-60
2021/04/09 11:07:18;;;;;;;1.77;0.40;;;;;;;33.89;20.39;100543.53;4833488;28;98384;-64
2021/04/09 11:09:50;;;;;;;1.15;0.40;;;;;;;33.61;20.87;100534.41;4819452;28;110824;-64
2021/04/09 11:12:17;;;;;;;1.15;0.40;;;;;;;33.33;21.13;100537.63;4818458;28;98713;-60
2021/04/09 11:14:43;;;;;;;1.17;0.40;;;;;;;33.46;21.04;100533.84;4819603;28;99443;-64
2021/04/09 11:17:10;;;;;;;1.33;0.40;;;;;;;32.65;21.62;100532.91;4818379;28;128609;-64
2021/04/09 11:19:38;;;;;;;0.77;0.38;;;;;;;32.19;22.01;100532.19;4819224;28;97873;-64
2021/04/09 11:22:07;;;;;;;1.27;0.47;;;;;;;33.45;20.50;100523.91;4818661;28;100214;-64
2021/04/09 11:24:38;;;;;;;1.88;0.40;;;;;;;33.78;20.34;100534.56;4820586;28;98551;-60
2021/04/09 11:27:21;;;;;;;1.02;0.40;;;;;;;34.05;19.87;100512.94;4821511;28;98876;-60
2021/04/09 11:29:48;;;;;;;2.30;0.30;;;;;;;32.81;21.12;100515.56;4817923;28;112251;-63
2021/04/09 11:32:18;;;;;;;1.02;0.30;;;;;;;32.77;21.58;100507.25;4823576;28;98764;-64
2021/04/09 11:34:49;;;;;;;1.30;0.30;;;;;;;33.05;21.14;100494.13;4821891;28;99555;-64
2021/04/09 11:37:18;;;;;;;2.33;0.50;;;;;;;33.09;21.36;100506.03;4822001;28;98432;-64
2021/04/09 11:39:57;;;;;;;1.20;0.30;;;;;;;33.38;20.84;100500.84;4825956;28;97910;-60